Time;durP1;ratioP1;P1;durP2;ratioP2;P2;SDS_P1;SDS_P2;PMS_P1;PMS_P2;Temp;Humidity;BMP_temperature;BMP_pressure;BME280_temperature;BME280_humidity;BME280_pressure;Samples;Min_cycle;Max_cycle;Signal;HPM_P1;HPM_P2
2021/07/08 00:02:07;;;;;;;6.15;1.90;;;;;;;13.63;91.14;98753.09;5086653;28;20028;-65
2021/07/08 00:04:34;;;;;;;2.67;1.73;;;;;;;13.56;90.69;98747.13;5084208;28;20027;-65
2021/07/08 00:06:59;;;;;;;7.20;1.70;;;;;;;13.53;90.87;98754.28;5084170;28;20092;-65
2021/07/08 00:09:25;;;;;;;12.25;1.85;;;;;;;13.40;90.68;98752.91;5084177;28;20028;-65
2021/07/08 00:11:50;;;;;;;4.10;1.67;;;;;;;13.25;91.03;98759.47;5084131;28;20024;-65
2021/07/08 00:14:15;;;;;;;5.47;1.70;;;;;;;13.24;90.98;98762.16;5084015;28;20029;-65
2021/07/08 00:16:41;;;;;;;8.20;1.83;;;;;;;13.20;91.48;98763.16;5084055;28;20020;-65
2021/07/08 00:19:07;;;;;;;3.47;1.73;;;;;;;13.25;91.74;98761.28;5084051;28;20216;-65
2021/07/08 00:21:34;;;;;;;7.03;1.73;;;;;;;13.35;91.73;98758.31;5100493;28;20026;-65
2021/07/08 00:23:59;;;;;;;5.43;2.03;;;;;;;13.30;91.50;98760.22;5101054;28;20315;-65
2021/07/08 00:26:24;;;;;;;7.00;1.75;;;;;;;13.28;90.97;98761.16;5100538;28;20034;-65
2021/07/08 00:28:50;;;;;;;2.80;1.80;;;;;;;13.31;90.26;98761.09;5099967;28;20019;-65
2021/07/08 00:31:15;;;;;;;6.18;1.85;;;;;;;13.28;90.21;98758.53;5100979;28;20299;-65
2021/07/08 00:33:41;;;;;;;2.72;1.80;;;;;;;13.29;90.07;98747.91;5100661;28;20077;-65
2021/07/08 00:36:07;;;;;;;3.90;1.38;;;;;;;13.31;90.52;98742.56;5099677;28;20223;-65
2021/07/08 00:38:33;;;;;;;5.45;1.95;;;;;;;13.38;90.06;98757.38;5100915;28;20368;-65
2021/07/08 00:40:59;;;;;;;7.80;1.80;;;;;;;13.34;89.95;98753.06;5099683;28;20065;-65
2021/07/08 00:43:28;;;;;;;4.43;1.58;;;;;;;13.19;89.85;98761.44;5100239;28;20024;-65
2021/07/08 00:45:53;;;;;;;5.15;1.58;;;;;;;13.16;90.14;98762.38;5098748;28;20013;-65
2021/07/08 00:48:19;;;;;;;2.60;1.50;;;;;;;13.20;90.75;98768.44;5100586;28;20029;-65
2021/07/08 00:50:48;;;;;;;5.35;1.85;;;;;;;13.28;90.49;98761.16;5100176;28;20020;-65
2021/07/08 00:53:19;;;;;;;5.13;1.65;;;;;;;13.22;90.23;98761.38;5100107;28;20059;-65
2021/07/08 00:55:56;;;;;;;3.90;1.60;;;;;;;13.23;90.15;98765.72;5092006;28;20029;-65
2021/07/08 00:58:21;;;;;;;1.70;1.30;;;;;;;13.22;90.31;98764.84;5088706;28;20020;-65
2021/07/08 01:00:47;;;;;;;3.53;1.92;;;;;;;13.35;90.71;98753.03;5090119;28;20188;-65
2021/07/08 01:03:13;;;;;;;5.38;1.50;;;;;;;13.38;89.74;98752.94;5090777;28;20012;-65
2021/07/08 01:05:45;;;;;;;6.20;1.77;;;;;;;13.43;89.05;98755.44;5088150;28;20311;-65
2021/07/08 01:08:12;;;;;;;1.23;1.00;;;;;;;13.26;89.15;98753.31;5087560;28;20021;-65
2021/07/08 01:10:39;;;;;;;1.10;1.05;;;;;;;13.10;89.28;98745.84;5087481;28;20210;-65
2021/07/08 01:13:05;;;;;;;8.52;1.70;;;;;;;13.17;89.76;98739.47;5087422;28;20024;-65
2021/07/08 01:15:31;;;;;;;4.18;1.55;;;;;;;13.21;90.12;98733.19;5099412;28;20207;-65
2021/07/08 01:17:57;;;;;;;3.70;1.52;;;;;;;13.21;90.70;98735.81;5104426;28;20312;-65
2021/07/08 01:20:25;;;;;;;5.47;1.65;;;;;;;13.23;91.02;98736.66;5102758;28;20037;-65
2021/07/08 01:22:57;;;;;;;5.30;1.50;;;;;;;13.32;90.65;98736.41;5104450;28;20083;-65
2021/07/08 01:25:24;;;;;;;;;;;;;;;13.29;89.64;98733.84;5103131;28;20016;-65
2021/07/08 01:27:49;;;;;;;7.93;1.40;;;;;;;13.24;89.99;98727.81;5104292;28;19911;-65
2021/07/08 01:30:15;;;;;;;3.95;1.35;;;;;;;13.14;89.59;98736.91;5103072;28;20047;-65
2021/07/08 01:32:41;;;;;;;5.45;1.70;;;;;;;13.16;91.01;98740.38;5102884;28;20024;-65
2021/07/08 01:35:08;;;;;;;6.82;1.70;;;;;;;13.24;90.90;98733.09;5102458;28;20337;-65
2021/07/08 01:37:33;;;;;;;5.07;1.60;;;;;;;13.28;90.71;98734.72;5104076;28;20086;-65
2021/07/08 01:40:00;;;;;;;7.82;1.85;;;;;;;13.24;90.54;98738.38;5104045;28;20020;-65
2021/07/08 01:42:29;;;;;;;4.65;1.40;;;;;;;13.26;90.73;98742.75;5102652;28;20049;-65
2021/07/08 01:44:57;;;;;;;6.63;1.58;;;;;;;13.36;90.62;98748.63;5089497;28;20208;-65
2021/07/08 01:47:22;;;;;;;2.55;1.30;;;;;;;13.41;89.90;98752.00;5089244;28;20020;-65
2021/07/08 01:49:48;;;;;;;6.30;1.30;;;;;;;13.39;89.61;98737.94;5089588;28;20224;-65
2021/07/08 01:52:14;;;;;;;3.65;1.40;;;;;;;13.26;89.99;98728.63;5089712;28;20036;-65
2021/07/08 01:54:39;;;;;;;5.82;1.60;;;;;;;13.32;90.17;98724.03;5089823;28;20219;-65
2021/07/08 01:57:05;;;;;;;4.22;1.45;;;;;;;13.39;89.91;98727.38;5089329;28;20081;-65
2021/07/08 01:59:30;;;;;;;7.15;1.70;;;;;;;13.42;90.24;98722.00;5088973;28;20227;-65
2021/07/08 02:01:56;;;;;;;2.80;1.45;;;;;;;13.49;90.09;98720.91;5090114;28;20021;-65
2021/07/08 02:04:21;;;;;;;8.85;1.52;;;;;;;13.49;90.22;98710.31;5090139;28;20244;-65
2021/07/08 02:06:47;;;;;;;6.13;1.50;;;;;;;13.39;90.22;98709.75;5089996;28;20043;-65
2021/07/08 02:09:12;;;;;;;3.78;1.50;;;;;;;13.48;90.73;98711.25;5088476;28;20320;-65
2021/07/08 02:11:38;;;;;;;4.30;1.65;;;;;;;13.58;89.84;98707.41;5088937;28;20066;-65
2021/07/08 02:14:04;;;;;;;3.78;1.65;;;;;;;13.64;89.35;98712.53;5089766;28;20028;-65
2021/07/08 02:16:30;;;;;;;9.73;1.55;;;;;;;13.66;89.46;98715.97;5088675;28;20024;-65
2021/07/08 02:18:55;;;;;;;3.80;1.30;;;;;;;13.64;89.04;98717.81;5088585;28;20028;-65
2021/07/08 02:21:21;;;;;;;7.35;1.60;;;;;;;13.57;89.51;98721.56;5089870;28;20027;-65
2021/07/08 02:23:46;;;;;;;2.13;1.20;;;;;;;13.35;89.53;98715.16;5091996;28;20215;-65
2021/07/08 02:26:12;;;;;;;6.95;1.52;;;;;;;13.38;89.57;98720.38;5089680;28;20147;-65
2021/07/08 02:28:38;;;;;;;6.50;2.00;;;;;;;13.35;89.20;98720.44;5090821;28;20016;-65
2021/07/08 02:31:04;;;;;;;2.35;1.30;;;;;;;13.39;89.42;98717.69;5099862;28;20035;-65
2021/07/08 02:33:31;;;;;;;2.50;1.60;;;;;;;13.33;89.82;98719.63;5093372;28;20022;-65
2021/07/08 02:35:56;;;;;;;4.45;1.55;;;;;;;13.25;89.95;98716.34;5088206;28;20033;-65
2021/07/08 02:38:22;;;;;;;5.57;1.67;;;;;;;13.27;90.48;98722.44;5089014;28;20088;-65
2021/07/08 02:40:48;;;;;;;6.28;2.72;;;;;;;13.22;90.73;98734.94;5088601;28;20096;-65
2021/07/08 02:43:14;;;;;;;4.03;2.40;;;;;;;13.27;90.83;98739.16;5088080;28;20373;-65
2021/07/08 02:45:41;;;;;;;2.20;1.50;;;;;;;13.38;90.57;98742.34;5088354;28;20017;-65
2021/07/08 02:48:11;;;;;;;6.07;1.85;;;;;;;13.42;91.00;98744.03;5088633;28;20020;-64
2021/07/08 02:50:37;;;;;;;6.35;1.85;;;;;;;13.46;90.63;98739.50;5088006;28;20043;-65
2021/07/08 02:53:04;;;;;;;4.93;1.80;;;;;;;13.54;90.57;98732.22;5089035;28;20039;-65
2021/07/08 02:55:30;;;;;;;11.32;1.85;;;;;;;13.62;90.41;98733.72;5087825;28;20037;-65
2021/07/08 02:57:56;;;;;;;6.70;2.17;;;;;;;13.65;90.04;98735.41;5089056;28;20224;-65
2021/07/08 03:00:24;;;;;;;1.80;1.40;;;;;;;13.71;89.91;98730.81;5088629;28;20043;-65
2021/07/08 03:02:50;;;;;;;1.88;1.35;;;;;;;13.73;89.77;98717.53;5085348;28;20029;-65
2021/07/08 03:05:17;;;;;;;3.08;1.30;;;;;;;13.71;89.70;98722.00;5087711;28;20087;-65
2021/07/08 03:07:43;;;;;;;6.03;1.60;;;;;;;13.71;89.63;98724.63;5087674;28;20016;-65
2021/07/08 03:10:11;;;;;;;1.48;1.30;;;;;;;13.71;89.49;98725.53;5088832;28;20276;-65
2021/07/08 03:12:37;;;;;;;2.58;1.48;;;;;;;13.70;90.20;98736.16;5087557;28;20017;-65
2021/07/08 03:15:04;;;;;;;6.03;1.50;;;;;;;13.64;90.22;98733.69;5088662;28;20073;-65
2021/07/08 03:17:30;;;;;;;3.60;1.30;;;;;;;13.68;89.66;98743.25;5087855;28;20026;-65
2021/07/08 03:19:55;;;;;;;6.65;1.80;;;;;;;13.64;89.88;98746.91;5087285;28;20052;-65
2021/07/08 03:22:21;;;;;;;3.83;1.33;;;;;;;13.61;89.64;98749.63;5087785;28;20070;-65
2021/07/08 03:24:46;;;;;;;6.97;1.60;;;;;;;13.59;89.77;98747.03;5098554;28;20035;-65
2021/07/08 03:27:12;;;;;;;4.63;1.45;;;;;;;13.69;89.83;98747.63;5100464;28;20020;-65
2021/07/08 03:29:37;;;;;;;5.45;1.88;;;;;;;13.69;89.73;98744.97;5087235;28;20028;-65
2021/07/08 03:32:04;;;;;;;1.55;1.45;;;;;;;13.64;89.83;98750.41;5087192;28;20091;-65
2021/07/08 03:34:29;;;;;;;11.98;1.52;;;;;;;13.68;90.00;98740.59;5088275;28;20024;-65
2021/07/08 03:36:54;;;;;;;3.80;1.42;;;;;;;13.67;90.20;98733.59;5087051;28;20311;-65
2021/07/08 03:39:20;;;;;;;4.03;1.75;;;;;;;13.78;89.47;98736.75;5084625;28;20028;-65
2021/07/08 03:41:45;;;;;;;7.93;1.50;;;;;;;13.81;89.43;98728.72;5084799;28;20303;-65
2021/07/08 03:44:11;;;;;;;5.75;1.45;;;;;;;13.84;89.56;98726.00;5084502;28;20039;-65
2021/07/08 03:46:36;;;;;;;8.55;1.98;;;;;;;13.87;89.92;98725.91;5084503;28;20034;-65
2021/07/08 03:49:02;;;;;;;6.85;1.90;;;;;;;13.87;89.61;98720.63;5084461;28;20020;-65
2021/07/08 03:51:28;;;;;;;7.43;1.63;;;;;;;13.71;89.59;98714.06;5084232;28;20021;-65
2021/07/08 03:53:53;;;;;;;11.98;1.90;;;;;;;13.59;89.90;98714.44;5084339;28;20028;-65
2021/07/08 03:56:18;;;;;;;11.80;2.13;;;;;;;13.48;90.42;98716.53;5084365;28;20303;-65
2021/07/08 03:58:44;;;;;;;9.55;2.10;;;;;;;13.54;90.76;98711.06;5093565;28;20208;-65
2021/07/08 04:01:09;;;;;;;1.83;1.35;;;;;;;13.58;90.39;98707.41;5097616;28;20020;-65
2021/07/08 04:03:35;;;;;;;7.13;1.63;;;;;;;13.52;90.45;98708.47;5087999;28;20185;-65
2021/07/08 04:06:00;;;;;;;4.85;1.42;;;;;;;13.61;90.91;98712.59;5088550;28;20087;-65
2021/07/08 04:08:26;;;;;;;10.27;2.05;;;;;;;13.64;90.60;98716.00;5093724;28;20282;-65
2021/07/08 04:10:51;;;;;;;6.05;1.77;;;;;;;13.72;90.49;98711.38;5099634;28;20019;-65
2021/07/08 04:13:20;;;;;;;5.32;1.92;;;;;;;13.73;90.61;98720.19;5099124;28;20028;-65
2021/07/08 04:15:48;;;;;;;4.80;1.77;;;;;;;13.75;90.07;98726.28;5099933;28;20043;-65
2021/07/08 04:18:15;;;;;;;2.50;1.73;;;;;;;13.71;90.12;98729.94;5098645;28;20023;-65
2021/07/08 04:20:41;;;;;;;5.28;1.50;;;;;;;13.77;90.18;98724.47;5098923;28;20015;-65
2021/07/08 04:23:10;;;;;;;2.85;1.60;;;;;;;13.85;90.30;98733.00;5099710;28;20020;-65
2021/07/08 04:25:37;;;;;;;3.85;2.10;;;;;;;13.88;90.15;98732.91;5099211;28;20016;-65
2021/07/08 04:28:02;;;;;;;5.15;1.85;;;;;;;13.94;89.93;98732.72;5098536;28;20012;-65
2021/07/08 04:30:28;;;;;;;8.68;1.90;;;;;;;14.00;90.08;98728.13;5091051;28;20024;-65
2021/07/08 04:32:54;;;;;;;3.58;1.65;;;;;;;14.06;89.95;98733.22;5085349;28;20024;-65
2021/07/08 04:35:25;;;;;;;7.60;1.90;;;;;;;14.13;89.92;98734.75;5086545;28;20028;-65
2021/07/08 04:37:50;;;;;;;3.95;1.63;;;;;;;14.17;89.85;98725.81;5095256;28;20027;-65
2021/07/08 04:40:18;;;;;;;4.75;1.50;;;;;;;14.23;89.12;98725.63;5102266;28;20124;-65
2021/07/08 04:42:44;;;;;;;3.97;1.60;;;;;;;14.31;89.21;98722.75;5102494;28;20020;-65
2021/07/08 04:45:10;;;;;;;3.40;1.38;;;;;;;14.39;88.96;98732.16;5095182;28;20016;-65
2021/07/08 04:47:37;;;;;;;4.55;1.70;;;;;;;14.34;89.27;98727.94;5100280;28;20330;-65
2021/07/08 04:50:04;;;;;;;7.43;1.80;;;;;;;14.41;89.50;98734.75;5083776;28;20024;-65
2021/07/08 04:52:31;;;;;;;5.72;1.50;;;;;;;14.50;89.29;98729.16;5083533;28;20048;-65
2021/07/08 04:54:56;;;;;;;4.10;1.63;;;;;;;14.48;89.12;98731.00;5083643;28;20031;-65
2021/07/08 04:57:22;;;;;;;5.13;1.50;;;;;;;14.56;89.49;98734.25;5083776;28;20044;-65
2021/07/08 04:59:47;;;;;;;3.58;1.55;;;;;;;14.62;89.92;98736.72;5083627;28;20051;-65
2021/07/08 05:02:14;;;;;;;4.95;2.00;;;;;;;14.69;89.82;98741.72;5083633;28;20043;-65
2021/07/08 05:04:39;;;;;;;7.13;1.90;;;;;;;14.72;90.28;98740.78;5083596;28;20021;-65
2021/07/08 05:07:05;;;;;;;8.90;1.90;;;;;;;14.83;90.20;98738.59;5083587;28;20034;-65
2021/07/08 05:09:30;;;;;;;3.30;1.45;;;;;;;14.97;89.88;98739.00;5083576;28;20026;-65
2021/07/08 05:11:55;;;;;;;5.22;1.80;;;;;;;15.03;90.07;98736.16;5083587;28;20025;-65
2021/07/08 05:14:21;;;;;;;5.65;1.70;;;;;;;15.10;90.02;98724.41;5083444;28;20084;-65
2021/07/08 05:16:46;;;;;;;3.75;1.90;;;;;;;15.19;89.28;98718.78;5083506;28;20320;-65
2021/07/08 05:19:12;;;;;;;11.63;2.63;;;;;;;15.20;89.11;98723.13;5083502;28;20024;-65
2021/07/08 05:21:50;;;;;;;8.32;1.67;;;;;;;15.23;88.52;98722.16;5083450;28;20055;-65
2021/07/08 05:24:21;;;;;;;7.88;1.88;;;;;;;15.14;88.85;98729.53;5083460;28;20358;-65
2021/07/08 05:26:47;;;;;;;7.78;1.60;;;;;;;15.08;89.24;98728.88;5083739;28;20046;-65
2021/07/08 05:29:13;;;;;;;5.03;1.70;;;;;;;15.03;89.43;98739.63;5083380;28;20066;-65
2021/07/08 05:31:39;;;;;;;3.80;1.60;;;;;;;15.15;89.15;98741.00;5083336;28;20254;-65
2021/07/08 05:34:04;;;;;;;8.15;1.70;;;;;;;15.20;88.93;98739.06;5083545;28;20028;-65
2021/07/08 05:36:30;;;;;;;6.75;2.17;;;;;;;15.14;89.73;98740.16;5083302;28;20223;-65
2021/07/08 05:38:55;;;;;;;4.30;1.70;;;;;;;15.28;89.30;98750.22;5081536;28;20029;-65
2021/07/08 05:41:21;;;;;;;7.78;1.83;;;;;;;15.32;89.03;98756.31;5083296;28;20032;-65
2021/07/08 05:43:46;;;;;;;2.90;1.73;;;;;;;15.42;88.76;98771.88;5084554;28;20030;-65
2021/07/08 05:46:12;;;;;;;6.88;1.58;;;;;;;15.49;88.43;98775.13;5086830;28;20016;-65
2021/07/08 05:48:37;;;;;;;5.03;1.98;;;;;;;15.54;88.27;98776.72;5086779;28;20323;-65
2021/07/08 05:51:03;;;;;;;6.13;1.80;;;;;;;15.63;88.50;98783.47;5086770;28;20239;-65
2021/07/08 05:53:28;;;;;;;7.40;1.73;;;;;;;15.71;88.58;98779.59;5086573;28;20037;-65
2021/07/08 05:55:53;;;;;;;12.25;2.03;;;;;;;15.71;89.20;98784.03;5086624;28;20074;-65
2021/07/08 05:58:19;;;;;;;5.15;2.13;;;;;;;15.72;89.73;98783.97;5086609;28;20024;-65
2021/07/08 06:00:47;;;;;;;5.82;2.08;;;;;;;15.82;89.11;98776.56;5086596;28;20256;-65
2021/07/08 06:03:13;;;;;;;6.65;2.35;;;;;;;15.84;89.63;98775.56;5086550;28;20025;-65
2021/07/08 06:05:38;;;;;;;4.68;2.15;;;;;;;15.96;89.68;98775.09;5086478;28;20212;-65
2021/07/08 06:08:04;;;;;;;5.72;1.85;;;;;;;16.05;89.04;98774.75;5086487;28;20024;-65
2021/07/08 06:10:29;;;;;;;5.22;2.00;;;;;;;16.08;89.03;98779.94;5086426;28;20091;-65
2021/07/08 06:12:55;;;;;;;4.40;2.25;;;;;;;16.14;89.26;98785.00;5086385;28;20024;-65
2021/07/08 06:15:21;;;;;;;8.27;2.30;;;;;;;16.25;89.07;98782.78;5086264;28;20025;-65
2021/07/08 06:17:46;;;;;;;5.22;2.22;;;;;;;16.34;88.84;98787.75;5086265;28;20024;-65
2021/07/08 06:20:13;;;;;;;4.07;1.80;;;;;;;16.38;88.56;98793.78;5086273;28;20020;-65
2021/07/08 06:22:39;;;;;;;6.32;2.05;;;;;;;16.46;88.17;98775.78;5086199;28;20036;-65
2021/07/08 06:25:06;;;;;;;2.92;1.90;;;;;;;16.54;88.32;98785.19;5086135;28;20026;-65
2021/07/08 06:27:31;;;;;;;6.78;2.03;;;;;;;16.70;87.37;98775.66;5086086;28;20028;-65
2021/07/08 06:29:56;;;;;;;4.70;2.30;;;;;;;17.05;86.95;98772.34;5086070;28;20024;-65
2021/07/08 06:32:22;;;;;;;8.43;2.33;;;;;;;17.52;85.29;98772.13;5085997;28;20020;-65
2021/07/08 06:34:47;;;;;;;7.90;2.33;;;;;;;17.52;85.40;98769.47;5085898;28;20088;-65
2021/07/08 06:37:13;;;;;;;6.97;1.92;;;;;;;17.55;84.98;98777.28;5085919;28;20287;-65
2021/07/08 06:39:39;;;;;;;10.77;2.13;;;;;;;17.63;84.85;98783.13;5086126;28;20016;-65
2021/07/08 06:42:04;;;;;;;5.80;1.63;;;;;;;17.82;84.73;98776.91;5086034;28;20304;-65
2021/07/08 06:44:30;;;;;;;5.07;2.30;;;;;;;18.15;83.80;98774.47;5085734;28;20254;-65
2021/07/08 06:46:55;;;;;;;4.18;1.90;;;;;;;18.39;82.79;98778.66;5085789;28;20020;-65
2021/07/08 06:49:21;;;;;;;7.10;1.90;;;;;;;18.61;82.37;98774.84;5085624;28;20027;-65
2021/07/08 06:51:48;;;;;;;9.55;2.35;;;;;;;18.69;81.90;98766.47;5085683;28;20044;-65
2021/07/08 06:54:14;;;;;;;4.28;2.03;;;;;;;18.69;80.45;98770.03;5085349;28;20327;-65
2021/07/08 06:56:39;;;;;;;7.78;2.10;;;;;;;18.47;82.12;98771.13;5084691;28;20027;-65
2021/07/08 06:59:04;;;;;;;5.45;1.90;;;;;;;18.45;81.46;98779.22;5085468;28;20032;-65
2021/07/08 07:01:30;;;;;;;6.57;2.20;;;;;;;18.32;82.59;98779.88;5085692;28;20021;-65
2021/07/08 07:03:55;;;;;;;8.30;2.40;;;;;;;18.24;82.34;98774.03;5085399;28;20024;-65
2021/07/08 07:06:21;;;;;;;4.60;1.95;;;;;;;18.20;83.05;98783.97;5085337;28;20028;-65
2021/07/08 07:08:46;;;;;;;7.53;2.38;;;;;;;18.15;83.81;98782.44;5085252;28;20319;-65
2021/07/08 07:11:11;;;;;;;4.57;2.20;;;;;;;18.13;84.29;98787.00;5085207;28;20027;-65
2021/07/08 07:13:37;;;;;;;7.07;2.30;;;;;;;18.15;83.88;98795.78;5085190;28;20036;-65
2021/07/08 07:16:02;;;;;;;5.07;2.20;;;;;;;18.11;83.83;98799.53;5085042;28;20219;-65
2021/07/08 07:18:28;;;;;;;4.78;2.25;;;;;;;18.03;84.21;98801.69;5085078;28;20052;-65
2021/07/08 07:20:53;;;;;;;6.35;2.17;;;;;;;17.97;84.13;98801.97;5085006;28;20255;-65
2021/07/08 07:23:19;;;;;;;7.00;2.40;;;;;;;17.95;84.81;98819.81;5084957;28;20387;-65
2021/07/08 07:25:45;;;;;;;3.35;2.17;;;;;;;17.89;86.33;98820.97;5085180;28;20020;-65
2021/07/08 07:28:12;;;;;;;4.68;2.53;;;;;;;17.94;86.26;98826.09;5084895;28;20215;-65
2021/07/08 07:30:38;;;;;;;7.20;2.30;;;;;;;18.02;86.08;98834.56;5084829;28;20024;-65
2021/07/08 07:33:04;;;;;;;4.47;2.13;;;;;;;18.08;86.30;98834.28;5084753;28;20024;-65
2021/07/08 07:35:29;;;;;;;4.80;2.67;;;;;;;18.02;86.75;98847.88;5084678;28;20354;-65
2021/07/08 07:37:55;;;;;;;2.70;2.00;;;;;;;18.04;87.61;98862.88;5084692;28;20024;-65
2021/07/08 07:40:22;;;;;;;6.97;2.75;;;;;;;17.95;88.94;98867.75;5084657;28;20089;-65
2021/07/08 07:42:48;;;;;;;8.75;2.60;;;;;;;17.85;89.27;98885.06;5084528;28;20031;-65
2021/07/08 07:45:14;;;;;;;5.50;2.80;;;;;;;17.82;88.88;98882.56;5084566;28;20319;-65
2021/07/08 07:47:40;;;;;;;15.00;2.88;;;;;;;17.78;89.48;98886.28;5084536;28;20031;-65
2021/07/08 07:50:08;;;;;;;4.93;3.20;;;;;;;17.74;90.63;98887.34;5084595;28;20024;-65
2021/07/08 07:52:33;;;;;;;7.13;2.53;;;;;;;17.70;91.01;98904.38;5084320;28;20040;-65
2021/07/08 07:54:59;;;;;;;8.25;2.92;;;;;;;17.69;90.74;98903.53;5084325;28;20032;-64
2021/07/08 07:57:24;;;;;;;5.18;2.70;;;;;;;17.67;90.74;98909.84;5084390;28;20084;-65
2021/07/08 07:59:50;;;;;;;4.93;2.28;;;;;;;17.62;90.80;98923.34;5084348;28;20028;-65
2021/07/08 08:02:17;;;;;;;6.32;2.58;;;;;;;17.65;90.59;98927.69;5084345;28;20027;-65
2021/07/08 08:04:54;;;;;;;5.57;2.55;;;;;;;17.56;89.73;98925.41;5084292;28;20028;-65
2021/07/08 08:10:04;;;;;;;3.63;2.15;;;;;;;17.46;88.46;98948.88;5084279;28;20062;-65
2021/07/08 08:12:29;;;;;;;5.57;2.60;;;;;;;17.41;89.16;98948.19;5084148;28;20028;-65
2021/07/08 08:14:55;;;;;;;5.93;2.70;;;;;;;17.24;89.08;98945.34;5084087;28;20028;-65
2021/07/08 08:17:20;;;;;;;5.43;2.20;;;;;;;17.16;89.70;98951.00;5084375;28;20024;-65
2021/07/08 08:19:46;;;;;;;6.95;2.80;;;;;;;17.15;90.26;98941.25;5084398;28;20320;-65
2021/07/08 08:22:11;;;;;;;5.57;3.60;;;;;;;16.96;90.14;98937.63;5084088;28;20323;-65
2021/07/08 08:24:38;;;;;;;5.88;4.50;;;;;;;16.83;90.18;98947.00;5084036;28;20122;-65
2021/07/08 08:27:04;;;;;;;5.15;3.65;;;;;;;16.83;90.16;98941.69;5083995;28;20032;-65
2021/07/08 08:29:30;;;;;;;6.60;4.07;;;;;;;16.75;90.24;98941.16;5083941;28;20028;-65
2021/07/08 08:31:55;;;;;;;5.00;4.20;;;;;;;16.72;90.48;98938.59;5083964;28;20051;-65
2021/07/08 08:34:21;;;;;;;5.25;3.65;;;;;;;16.63;90.50;98944.28;5083885;28;20043;-64
2021/07/08 08:36:46;;;;;;;5.10;3.58;;;;;;;16.67;90.26;98934.38;5083904;28;20083;-64
2021/07/08 08:39:12;;;;;;;5.63;4.28;;;;;;;16.59;90.88;98937.34;5083871;28;20240;-64
2021/07/08 08:41:38;;;;;;;9.20;5.15;;;;;;;16.61;91.81;98924.84;5083849;28;20035;-64
2021/07/08 08:44:04;;;;;;;9.57;5.47;;;;;;;16.56;91.60;98925.97;5083859;28;20351;-64
2021/07/08 08:46:33;;;;;;;6.75;4.90;;;;;;;16.58;91.89;98919.66;5083832;28;20319;-64
2021/07/08 08:49:00;;;;;;;7.63;4.50;;;;;;;16.63;91.54;98923.00;5083734;28;20031;-65
2021/07/08 08:51:25;;;;;;;5.78;4.40;;;;;;;16.65;91.20;98921.13;5083608;28;20197;-65
2021/07/08 08:53:51;;;;;;;6.60;4.22;;;;;;;16.73;91.51;98929.69;5083745;28;20028;-65
2021/07/08 08:56:16;;;;;;;7.28;4.10;;;;;;;16.79;91.26;98934.78;5083605;28;20413;-65
2021/07/08 08:58:42;;;;;;;6.63;4.53;;;;;;;16.78;91.29;98930.38;5083683;28;20062;-65
2021/07/08 09:01:07;;;;;;;6.85;4.35;;;;;;;16.85;91.73;98938.97;5083684;28;20024;-65
2021/07/08 09:03:34;;;;;;;7.35;3.83;;;;;;;16.86;91.54;98933.59;5083669;28;20087;-65
2021/07/08 09:06:08;;;;;;;9.30;3.40;;;;;;;16.84;91.27;98927.47;5083650;28;20020;-65
2021/07/08 09:08:35;;;;;;;7.95;3.78;;;;;;;16.84;92.05;98926.63;5083709;28;20292;-65
2021/07/08 09:11:19;;;;;;;6.00;3.05;;;;;;;16.93;92.26;98932.41;5083606;28;20028;-65
2021/07/08 09:14:02;;;;;;;6.63;2.85;;;;;;;16.97;92.13;98922.53;5083554;28;20027;-65
2021/07/08 09:16:27;;;;;;;6.07;2.70;;;;;;;16.99;92.19;98932.19;5083808;28;20027;-65
2021/07/08 09:18:57;;;;;;;5.85;2.90;;;;;;;17.01;92.27;98930.34;5085051;28;20268;-65
2021/07/08 09:21:24;;;;;;;4.00;2.58;;;;;;;16.99;92.04;98934.84;5087342;28;20027;-65
2021/07/08 09:24:10;;;;;;;4.35;3.05;;;;;;;17.04;92.54;98935.53;5087272;28;20039;-65
2021/07/08 09:26:37;;;;;;;4.43;2.58;;;;;;;16.94;91.28;98955.44;5087349;28;20028;-65
2021/07/08 09:29:09;;;;;;;4.72;3.13;;;;;;;16.78;91.48;98953.44;5087197;28;20048;-65
2021/07/08 09:31:36;;;;;;;5.30;2.80;;;;;;;16.73;91.46;98952.75;5087153;28;20027;-65
2021/07/08 09:34:30;;;;;;;5.35;2.55;;;;;;;16.89;91.83;98956.53;5087013;28;20025;-65
2021/07/08 09:37:08;;;;;;;4.60;2.70;;;;;;;16.91;91.60;98960.88;5086210;28;20028;-65
2021/07/08 09:39:36;;;;;;;6.00;2.63;;;;;;;16.86;91.47;98957.53;5086952;28;20024;-65
2021/07/08 09:42:02;;;;;;;5.20;2.67;;;;;;;16.97;92.18;98955.31;5086908;28;20047;-65
2021/07/08 09:44:29;;;;;;;3.28;2.45;;;;;;;17.04;92.25;98947.94;5086895;28;20088;-65
2021/07/08 09:46:57;;;;;;;4.30;2.65;;;;;;;17.02;91.70;98941.81;5086872;28;20024;-65
2021/07/08 09:49:23;;;;;;;6.18;2.80;;;;;;;16.99;90.71;98942.81;5086816;28;20016;-65
2021/07/08 09:51:50;;;;;;;10.63;4.05;;;;;;;17.03;90.97;98928.47;5086631;28;20103;-65
2021/07/08 09:54:43;;;;;;;5.70;3.17;;;;;;;17.04;91.62;98930.22;5086756;28;20306;-65
2021/07/08 09:57:08;;;;;;;5.68;3.10;;;;;;;16.97;91.86;98926.06;5086774;28;20274;-65
2021/07/08 09:59:35;;;;;;;3.97;2.78;;;;;;;16.91;91.92;98931.63;5086700;28;20035;-65
2021/07/08 10:02:01;;;;;;;4.43;3.28;;;;;;;16.94;92.22;98922.66;5086781;28;20066;-65
2021/07/08 10:04:27;;;;;;;5.38;3.30;;;;;;;16.97;92.16;98918.09;5086583;28;20307;-65
2021/07/08 10:06:56;;;;;;;4.78;3.15;;;;;;;16.95;91.77;98927.91;5086530;28;20047;-65
2021/07/08 10:09:23;;;;;;;5.40;3.60;;;;;;;16.86;92.56;98914.97;5086493;28;20039;-65
2021/07/08 10:11:55;;;;;;;5.95;3.45;;;;;;;16.94;92.48;98923.53;5086421;28;20047;-65
2021/07/08 10:14:21;;;;;;;3.53;3.23;;;;;;;16.97;92.35;98926.06;5086599;28;20020;-65
2021/07/08 10:16:51;;;;;;;3.80;3.40;;;;;;;16.96;92.54;98924.31;5086388;28;20362;-65
2021/07/08 10:19:19;;;;;;;4.32;3.28;;;;;;;17.09;92.28;98906.09;5086307;28;20016;-65
2021/07/08 10:21:48;;;;;;;5.07;3.15;;;;;;;17.10;91.48;98902.50;5086275;28;20065;-65
2021/07/08 10:24:14;;;;;;;7.75;3.58;;;;;;;17.08;92.09;98897.22;5086450;28;20016;-65
2021/07/08 10:26:40;;;;;;;3.67;3.00;;;;;;;17.17;92.12;98902.19;5086177;28;20070;-65
2021/07/08 10:29:05;;;;;;;4.53;3.50;;;;;;;17.08;91.70;98894.56;5085946;28;20025;-65
2021/07/08 10:31:32;;;;;;;5.20;3.45;;;;;;;17.22;91.73;98899.34;5086030;28;20020;-65
2021/07/08 10:34:16;;;;;;;6.78;3.38;;;;;;;17.40;91.89;98905.69;5086026;28;20316;-65
2021/07/08 10:36:53;;;;;;;5.53;2.97;;;;;;;17.51;91.62;98935.38;5085950;28;20025;-65
2021/07/08 10:39:20;;;;;;;3.70;2.90;;;;;;;17.60;91.43;98943.84;5085937;28;20126;-65
2021/07/08 10:41:49;;;;;;;3.40;2.67;;;;;;;17.60;91.02;98938.53;5086069;28;20021;-65
2021/07/08 10:44:38;;;;;;;3.97;2.65;;;;;;;17.67;91.54;98942.66;5085842;28;20026;-65
2021/07/08 10:47:04;;;;;;;3.83;2.83;;;;;;;17.77;91.69;98948.44;5082448;28;20289;-65
2021/07/08 10:49:40;;;;;;;4.82;2.70;;;;;;;17.92;91.84;98948.66;5085715;28;20029;-65
2021/07/08 10:52:11;;;;;;;3.40;2.85;;;;;;;18.05;91.13;98951.63;5085504;28;20049;-65
2021/07/08 10:54:47;;;;;;;2.97;2.30;;;;;;;18.10;90.67;98946.97;5085510;28;20020;-65
2021/07/08 10:57:37;;;;;;;6.15;2.13;;;;;;;18.27;90.24;98950.63;5085603;28;20078;-65
2021/07/08 11:00:05;;;;;;;2.60;2.10;;;;;;;18.33;89.58;98938.81;5085535;28;20020;-65
2021/07/08 11:02:50;;;;;;;5.10;2.67;;;;;;;18.42;90.02;98939.28;5085392;28;20088;-65
2021/07/08 11:05:54;;;;;;;3.90;2.65;;;;;;;18.33;89.51;98938.81;5085657;28;20081;-65
2021/07/08 11:08:45;;;;;;;5.03;1.80;;;;;;;18.13;88.52;98936.19;5085368;28;20039;-65
2021/07/08 11:11:20;;;;;;;2.60;1.75;;;;;;;18.34;88.50;98935.22;5085241;28;20027;-65
2021/07/08 11:13:46;;;;;;;6.55;2.00;;;;;;;18.67;87.53;98929.22;5085267;28;20024;-65
2021/07/08 11:16:47;;;;;;;1.80;1.33;;;;;;;18.96;87.76;98933.16;5085082;28;20354;-65
2021/07/08 11:19:15;;;;;;;3.83;1.85;;;;;;;18.96;87.71;98926.00;5085076;28;20054;-65
2021/07/08 11:21:49;;;;;;;3.20;2.10;;;;;;;18.88;87.14;98928.19;5085305;28;20373;-65
2021/07/08 11:24:22;;;;;;;2.38;1.70;;;;;;;18.75;87.07;98929.72;5084977;28;20077;-65
2021/07/08 11:27:05;;;;;;;2.28;1.55;;;;;;;18.90;86.57;98921.00;5084951;28;20020;-65
2021/07/08 11:29:40;;;;;;;2.33;1.55;;;;;;;18.90;87.44;98914.78;5084902;28;20028;-65
2021/07/08 11:32:18;;;;;;;2.38;1.70;;;;;;;19.03;87.19;98914.13;5084869;28;20028;-65
2021/07/08 11:34:56;;;;;;;3.38;1.50;;;;;;;18.94;86.43;98911.91;5084754;28;20030;-65
2021/07/08 11:37:25;;;;;;;3.78;1.65;;;;;;;19.01;86.44;98917.78;5085003;28;20024;-65
2021/07/08 11:39:55;;;;;;;3.08;1.42;;;;;;;19.08;86.60;98919.25;5084953;28;20020;-65